sensor_id;sensor_type;location;lat;lon;timestamp;temperature;humidity
35796;DHT22;21916;52.428;13.302;2022-12-18T00:03:55;-5.20;99.90
35796;DHT22;21916;52.428;13.302;2022-12-18T00:06:24;-5.30;99.90
35796;DHT22;21916;52.428;13.302;2022-12-18T00:08:52;-5.20;99.90
35796;DHT22;21916;52.428;13.302;2022-12-18T00:11:20;-5.20;99.90
35796;DHT22;21916;52.428;13.302;2022-12-18T00:13:47;-5.10;99.90
35796;DHT22;21916;52.428;13.302;2022-12-18T00:16:16;-5.20;99.90
35796;DHT22;21916;52.428;13.302;2022-12-18T00:18:44;-5.10;99.90
35796;DHT22;21916;52.428;13.302;2022-12-18T00:21:11;-5.00;99.90
35796;DHT22;21916;52.428;13.302;2022-12-18T00:23:38;-5.10;99.90
35796;DHT22;21916;52.428;13.302;2022-12-18T00:26:07;-5.00;99.90
35796;DHT22;21916;52.428;13.302;2022-12-18T00:28:37;-5.10;99.90
35796;DHT22;21916;52.428;13.302;2022-12-18T00:31:06;-5.00;99.90
35796;DHT22;21916;52.428;13.302;2022-12-18T00:33:34;-4.90;99.90
35796;DHT22;21916;52.428;13.302;2022-12-18T00:36:05;-5.00;99.90
35796;DHT22;21916;52.428;13.302;2022-12-18T00:38:32;-5.00;99.90
35796;DHT22;21916;52.428;13.302;2022-12-18T00:40:58;-5.00;99.90
35796;DHT22;21916;52.428;13.302;2022-12-18T00:43:24;-5.10;99.90
35796;DHT22;21916;52.428;13.302;2022-12-18T00:45:52;-5.10;99.90
35796;DHT22;21916;52.428;13.302;2022-12-18T00:48:18;-5.10;99.90
35796;DHT22;21916;52.428;13.302;2022-12-18T00:50:44;-5.10;99.90
35796;DHT22;21916;52.428;13.302;2022-12-18T00:53:10;-5.20;99.90
35796;DHT22;21916;52.428;13.302;2022-12-18T00:55:40;-5.20;99.90
35796;DHT22;21916;52.428;13.302;2022-12-18T00:58:05;-5.20;99.90
35796;DHT22;21916;52.428;13.302;2022-12-18T01:00:31;-5.20;99.90
35796;DHT22;21916;52.428;13.302;2022-12-18T01:02:57;-5.20;99.90
35796;DHT22;21916;52.428;13.302;2022-12-18T01:05:24;-5.20;99.90
35796;DHT22;21916;52.428;13.302;2022-12-18T01:07:50;-5.20;99.90
35796;DHT22;21916;52.428;13.302;2022-12-18T01:10:17;-5.30;99.90
35796;DHT22;21916;52.428;13.302;2022-12-18T01:12:44;-5.30;99.90
35796;DHT22;21916;52.428;13.302;2022-12-18T01:15:12;-5.40;99.90
35796;DHT22;21916;52.428;13.302;2022-12-18T01:17:38;-5.50;99.90
35796;DHT22;21916;52.428;13.302;2022-12-18T01:20:05;-5.50;99.90
35796;DHT22;21916;52.428;13.302;2022-12-18T01:22:32;-5.50;99.90
35796;DHT22;21916;52.428;13.302;2022-12-18T01:24:59;-5.50;99.90
35796;DHT22;21916;52.428;13.302;2022-12-18T01:27:25;-5.50;99.90
35796;DHT22;21916;52.428;13.302;2022-12-18T01:29:51;-5.40;99.90
35796;DHT22;21916;52.428;13.302;2022-12-18T01:32:20;-5.50;99.90
35796;DHT22;21916;52.428;13.302;2022-12-18T01:34:46;-5.60;99.90
35796;DHT22;21916;52.428;13.302;2022-12-18T01:37:13;-5.70;99.90
35796;DHT22;21916;52.428;13.302;2022-12-18T01:39:39;-5.70;99.90
35796;DHT22;21916;52.428;13.302;2022-12-18T01:42:11;-5.60;99.90
35796;DHT22;21916;52.428;13.302;2022-12-18T01:47:23;-5.60;99.90
35796;DHT22;21916;52.428;13.302;2022-12-18T01:49:50;-5.50;99.90
35796;DHT22;21916;52.428;13.302;2022-12-18T01:52:17;-5.40;99.90
35796;DHT22;21916;52.428;13.302;2022-12-18T01:54:45;-5.40;99.90
35796;DHT22;21916;52.428;13.302;2022-12-18T01:57:13;-5.30;99.90
35796;DHT22;21916;52.428;13.302;2022-12-18T01:59:42;-5.20;99.90
35796;DHT22;21916;52.428;13.302;2022-12-18T02:02:08;-5.30;99.90
35796;DHT22;21916;52.428;13.302;2022-12-18T02:04:35;-5.20;99.90
35796;DHT22;21916;52.428;13.302;2022-12-18T02:07:20;-5.20;99.90
35796;DHT22;21916;52.428;13.302;2022-12-18T02:10:15;-5.10;99.90
35796;DHT22;21916;52.428;13.302;2022-12-18T02:18:37;-5.10;99.90
35796;DHT22;21916;52.428;13.302;2022-12-18T02:27:05;-5.10;99.90
35796;DHT22;21916;52.428;13.302;2022-12-18T02:29:41;-5.20;99.90
35796;DHT22;21916;52.428;13.302;2022-12-18T02:32:14;-5.20;99.90
35796;DHT22;21916;52.428;13.302;2022-12-18T02:34:42;-5.30;99.90
35796;DHT22;21916;52.428;13.302;2022-12-18T02:37:15;-5.30;99.90
35796;DHT22;21916;52.428;13.302;2022-12-18T02:39:43;-5.20;99.90
35796;DHT22;21916;52.428;13.302;2022-12-18T02:42:12;-5.20;99.90
35796;DHT22;21916;52.428;13.302;2022-12-18T02:44:45;-5.20;99.90
35796;DHT22;21916;52.428;13.302;2022-12-18T02:47:15;-5.30;99.90
35796;DHT22;21916;52.428;13.302;2022-12-18T02:55:52;-5.40;99.90
35796;DHT22;21916;52.428;13.302;2022-12-18T02:58:50;-5.40;99.90
35796;DHT22;21916;52.428;13.302;2022-12-18T03:01:35;-5.40;99.90
35796;DHT22;21916;52.428;13.302;2022-12-18T03:04:29;-5.30;99.90
35796;DHT22;21916;52.428;13.302;2022-12-18T03:06:58;-5.20;99.90
35796;DHT22;21916;52.428;13.302;2022-12-18T03:09:31;-5.30;99.90
35796;DHT22;21916;52.428;13.302;2022-12-18T03:12:00;-5.30;99.90
35796;DHT22;21916;52.428;13.302;2022-12-18T03:14:50;-5.30;99.90
35796;DHT22;21916;52.428;13.302;2022-12-18T03:17:20;-5.20;99.90
35796;DHT22;21916;52.428;13.302;2022-12-18T03:19:49;-5.20;99.90
35796;DHT22;21916;52.428;13.302;2022-12-18T03:22:18;-5.30;99.90
35796;DHT22;21916;52.428;13.302;2022-12-18T03:24:50;-5.20;99.90
35796;DHT22;21916;52.428;13.302;2022-12-18T03:27:19;-5.20;99.90
35796;DHT22;21916;52.428;13.302;2022-12-18T03:30:02;-5.10;99.90
35796;DHT22;21916;52.428;13.302;2022-12-18T03:32:44;-5.20;99.90
35796;DHT22;21916;52.428;13.302;2022-12-18T03:35:15;-5.30;99.90
35796;DHT22;21916;52.428;13.302;2022-12-18T03:37:44;-5.30;99.90
35796;DHT22;21916;52.428;13.302;2022-12-18T03:40:10;-5.20;99.90
35796;DHT22;21916;52.428;13.302;2022-12-18T03:42:50;-5.30;99.90
35796;DHT22;21916;52.428;13.302;2022-12-18T03:45:27;-5.40;99.90
35796;DHT22;21916;52.428;13.302;2022-12-18T03:51:09;-5.30;99.90
35796;DHT22;21916;52.428;13.302;2022-12-18T03:54:01;-5.20;99.90
35796;DHT22;21916;52.428;13.302;2022-12-18T03:56:36;-5.20;99.90
35796;DHT22;21916;52.428;13.302;2022-12-18T03:59:04;-5.20;99.90
35796;DHT22;21916;52.428;13.302;2022-12-18T04:01:35;-5.30;99.90
35796;DHT22;21916;52.428;13.302;2022-12-18T04:04:05;-5.40;99.90
35796;DHT22;21916;52.428;13.302;2022-12-18T04:06:35;-5.40;99.90
35796;DHT22;21916;52.428;13.302;2022-12-18T04:09:02;-5.50;99.90
35796;DHT22;21916;52.428;13.302;2022-12-18T04:11:31;-5.50;99.90
35796;DHT22;21916;52.428;13.302;2022-12-18T04:13:59;-5.40;99.90
35796;DHT22;21916;52.428;13.302;2022-12-18T04:16:26;-5.40;99.90
35796;DHT22;21916;52.428;13.302;2022-12-18T04:18:56;-5.40;99.90
35796;DHT22;21916;52.428;13.302;2022-12-18T04:21:25;-5.50;99.90
35796;DHT22;21916;52.428;13.302;2022-12-18T04:23:52;-5.60;99.90
35796;DHT22;21916;52.428;13.302;2022-12-18T04:26:22;-5.70;99.90
35796;DHT22;21916;52.428;13.302;2022-12-18T04:29:01;-5.60;99.90
35796;DHT22;21916;52.428;13.302;2022-12-18T04:31:28;-5.70;99.90
35796;DHT22;21916;52.428;13.302;2022-12-18T04:33:55;-5.60;99.90
35796;DHT22;21916;52.428;13.302;2022-12-18T04:36:22;-5.50;99.90
35796;DHT22;21916;52.428;13.302;2022-12-18T04:38:49;-5.70;99.90
35796;DHT22;21916;52.428;13.302;2022-12-18T04:41:16;-5.80;99.90
35796;DHT22;21916;52.428;13.302;2022-12-18T04:43:45;-5.70;99.90
35796;DHT22;21916;52.428;13.302;2022-12-18T04:46:11;-5.70;99.90
35796;DHT22;21916;52.428;13.302;2022-12-18T04:48:37;-5.80;99.90
35796;DHT22;21916;52.428;13.302;2022-12-18T04:51:04;-5.80;99.90
35796;DHT22;21916;52.428;13.302;2022-12-18T04:53:31;-5.80;99.90
35796;DHT22;21916;52.428;13.302;2022-12-18T04:56:07;-5.80;99.90
35796;DHT22;21916;52.428;13.302;2022-12-18T04:58:35;-5.90;99.90
35796;DHT22;21916;52.428;13.302;2022-12-18T05:01:01;-6.00;99.90
35796;DHT22;21916;52.428;13.302;2022-12-18T05:03:29;-5.90;99.90
35796;DHT22;21916;52.428;13.302;2022-12-18T05:05:54;-5.90;99.90
35796;DHT22;21916;52.428;13.302;2022-12-18T05:08:20;-5.90;99.90
35796;DHT22;21916;52.428;13.302;2022-12-18T05:10:46;-5.90;99.90
35796;DHT22;21916;52.428;13.302;2022-12-18T05:13:12;-5.90;99.90
35796;DHT22;21916;52.428;13.302;2022-12-18T05:15:38;-5.80;99.90
35796;DHT22;21916;52.428;13.302;2022-12-18T05:18:04;-5.90;99.90
35796;DHT22;21916;52.428;13.302;2022-12-18T05:20:31;-5.90;99.90
35796;DHT22;21916;52.428;13.302;2022-12-18T05:22:57;-5.70;99.90
35796;DHT22;21916;52.428;13.302;2022-12-18T05:25:23;-5.70;99.90
35796;DHT22;21916;52.428;13.302;2022-12-18T05:27:49;-5.70;99.90
35796;DHT22;21916;52.428;13.302;2022-12-18T05:30:16;-5.70;99.90
35796;DHT22;21916;52.428;13.302;2022-12-18T05:32:42;-5.80;99.90
35796;DHT22;21916;52.428;13.302;2022-12-18T05:35:10;-5.70;99.90
35796;DHT22;21916;52.428;13.302;2022-12-18T05:37:36;-5.70;99.90
35796;DHT22;21916;52.428;13.302;2022-12-18T05:40:03;-5.60;99.90
35796;DHT22;21916;52.428;13.302;2022-12-18T05:42:30;-5.60;99.90
35796;DHT22;21916;52.428;13.302;2022-12-18T05:44:56;-5.60;99.90
35796;DHT22;21916;52.428;13.302;2022-12-18T05:47:22;-5.70;99.90
35796;DHT22;21916;52.428;13.302;2022-12-18T05:49:48;-5.60;99.90
35796;DHT22;21916;52.428;13.302;2022-12-18T05:52:14;-5.70;99.90
35796;DHT22;21916;52.428;13.302;2022-12-18T05:54:40;-5.80;99.90
35796;DHT22;21916;52.428;13.302;2022-12-18T05:57:06;-5.80;99.90
35796;DHT22;21916;52.428;13.302;2022-12-18T05:59:32;-5.90;99.90
35796;DHT22;21916;52.428;13.302;2022-12-18T06:01:57;-6.00;99.90
35796;DHT22;21916;52.428;13.302;2022-12-18T06:04:23;-6.10;99.90
35796;DHT22;21916;52.428;13.302;2022-12-18T06:06:49;-6.00;99.90
35796;DHT22;21916;52.428;13.302;2022-12-18T06:09:15;-6.00;99.90
35796;DHT22;21916;52.428;13.302;2022-12-18T06:11:41;-5.90;99.90
35796;DHT22;21916;52.428;13.302;2022-12-18T06:14:06;-5.70;99.90
35796;DHT22;21916;52.428;13.302;2022-12-18T06:16:33;-5.60;99.90
35796;DHT22;21916;52.428;13.302;2022-12-18T06:19:00;-5.60;99.90
35796;DHT22;21916;52.428;13.302;2022-12-18T06:21:28;-5.60;99.90
35796;DHT22;21916;52.428;13.302;2022-12-18T06:23:54;-5.60;99.90
35796;DHT22;21916;52.428;13.302;2022-12-18T06:26:20;-5.50;99.90
35796;DHT22;21916;52.428;13.302;2022-12-18T06:28:46;-5.60;99.90
35796;DHT22;21916;52.428;13.302;2022-12-18T06:31:12;-5.70;99.90
35796;DHT22;21916;52.428;13.302;2022-12-18T06:33:38;-5.60;99.90
35796;DHT22;21916;52.428;13.302;2022-12-18T06:36:10;-5.70;99.90
35796;DHT22;21916;52.428;13.302;2022-12-18T06:38:38;-5.70;99.90
35796;DHT22;21916;52.428;13.302;2022-12-18T06:41:12;-5.80;99.90
35796;DHT22;21916;52.428;13.302;2022-12-18T06:43:38;-5.90;99.90
35796;DHT22;21916;52.428;13.302;2022-12-18T06:46:05;-5.90;99.90
35796;DHT22;21916;52.428;13.302;2022-12-18T06:48:31;-5.80;99.90
35796;DHT22;21916;52.428;13.302;2022-12-18T06:50:58;-5.80;99.90
35796;DHT22;21916;52.428;13.302;2022-12-18T06:53:24;-5.70;99.90
35796;DHT22;21916;52.428;13.302;2022-12-18T06:55:49;-5.70;99.90
35796;DHT22;21916;52.428;13.302;2022-12-18T06:58:15;-5.80;99.90
35796;DHT22;21916;52.428;13.302;2022-12-18T07:00:43;-5.70;99.90
35796;DHT22;21916;52.428;13.302;2022-12-18T07:03:09;-5.60;99.90
35796;DHT22;21916;52.428;13.302;2022-12-18T07:05:40;-5.60;99.90
35796;DHT22;21916;52.428;13.302;2022-12-18T07:08:07;-5.60;99.90
35796;DHT22;21916;52.428;13.302;2022-12-18T07:10:33;-5.50;99.90
35796;DHT22;21916;52.428;13.302;2022-12-18T07:13:00;-5.40;99.90
35796;DHT22;21916;52.428;13.302;2022-12-18T07:15:26;-5.40;99.90
35796;DHT22;21916;52.428;13.302;2022-12-18T07:17:51;-5.30;99.90
35796;DHT22;21916;52.428;13.302;2022-12-18T07:20:19;-5.30;99.90
35796;DHT22;21916;52.428;13.302;2022-12-18T07:22:45;-5.30;99.90
35796;DHT22;21916;52.428;13.302;2022-12-18T07:25:10;-5.20;99.90
35796;DHT22;21916;52.428;13.302;2022-12-18T07:27:37;-5.20;99.90
35796;DHT22;21916;52.428;13.302;2022-12-18T07:30:03;-5.20;99.90
35796;DHT22;21916;52.428;13.302;2022-12-18T07:32:30;-5.10;99.90
35796;DHT22;21916;52.428;13.302;2022-12-18T07:34:57;-5.10;99.90
35796;DHT22;21916;52.428;13.302;2022-12-18T07:37:25;-5.10;99.90
35796;DHT22;21916;52.428;13.302;2022-12-18T07:39:51;-5.20;99.90
35796;DHT22;21916;52.428;13.302;2022-12-18T07:42:16;-5.10;99.90
35796;DHT22;21916;52.428;13.302;2022-12-18T07:45:01;-5.10;99.90
35796;DHT22;21916;52.428;13.302;2022-12-18T07:47:28;-5.10;99.90
35796;DHT22;21916;52.428;13.302;2022-12-18T07:49:54;-5.10;99.90
35796;DHT22;21916;52.428;13.302;2022-12-18T07:52:20;-5.20;99.90
35796;DHT22;21916;52.428;13.302;2022-12-18T07:54:47;-5.10;99.90
35796;DHT22;21916;52.428;13.302;2022-12-18T07:57:16;-5.10;99.90
35796;DHT22;21916;52.428;13.302;2022-12-18T07:59:42;-5.00;99.90
35796;DHT22;21916;52.428;13.302;2022-12-18T08:02:08;-5.00;99.90
35796;DHT22;21916;52.428;13.302;2022-12-18T08:04:35;-5.00;99.90
35796;DHT22;21916;52.428;13.302;2022-12-18T08:07:01;-5.00;99.90
35796;DHT22;21916;52.428;13.302;2022-12-18T08:09:27;-5.00;99.90
35796;DHT22;21916;52.428;13.302;2022-12-18T08:11:53;-5.00;99.90
35796;DHT22;21916;52.428;13.302;2022-12-18T08:14:20;-5.10;99.90
35796;DHT22;21916;52.428;13.302;2022-12-18T08:16:46;-5.10;99.90
35796;DHT22;21916;52.428;13.302;2022-12-18T08:19:11;-5.10;99.90
35796;DHT22;21916;52.428;13.302;2022-12-18T08:21:38;-5.10;99.90
35796;DHT22;21916;52.428;13.302;2022-12-18T08:24:04;-5.00;99.90
35796;DHT22;21916;52.428;13.302;2022-12-18T08:26:31;-5.00;99.90
35796;DHT22;21916;52.428;13.302;2022-12-18T08:28:59;-5.00;99.90
35796;DHT22;21916;52.428;13.302;2022-12-18T08:31:25;-5.00;99.90
35796;DHT22;21916;52.428;13.302;2022-12-18T08:33:53;-4.90;99.90
35796;DHT22;21916;52.428;13.302;2022-12-18T08:36:22;-4.90;99.90
35796;DHT22;21916;52.428;13.302;2022-12-18T08:38:48;-4.90;99.90
35796;DHT22;21916;52.428;13.302;2022-12-18T08:41:15;-4.80;99.90
35796;DHT22;21916;52.428;13.302;2022-12-18T08:43:42;-4.90;99.90
35796;DHT22;21916;52.428;13.302;2022-12-18T08:46:27;-4.80;99.90
35796;DHT22;21916;52.428;13.302;2022-12-18T08:48:56;-4.80;99.90
35796;DHT22;21916;52.428;13.302;2022-12-18T08:51:22;-4.70;99.90
35796;DHT22;21916;52.428;13.302;2022-12-18T08:53:48;-4.80;99.90
35796;DHT22;21916;52.428;13.302;2022-12-18T08:56:14;-4.80;99.90
35796;DHT22;21916;52.428;13.302;2022-12-18T08:58:42;-4.80;99.90
35796;DHT22;21916;52.428;13.302;2022-12-18T09:01:09;-4.80;99.90
35796;DHT22;21916;52.428;13.302;2022-12-18T09:03:36;-4.80;99.90
35796;DHT22;21916;52.428;13.302;2022-12-18T09:06:02;-4.90;99.90
35796;DHT22;21916;52.428;13.302;2022-12-18T09:08:28;-4.90;99.90
35796;DHT22;21916;52.428;13.302;2022-12-18T09:10:55;-4.90;99.90
35796;DHT22;21916;52.428;13.302;2022-12-18T09:13:21;-5.00;99.90
35796;DHT22;21916;52.428;13.302;2022-12-18T09:15:52;-4.90;99.90
35796;DHT22;21916;52.428;13.302;2022-12-18T09:18:20;-4.80;99.90
35796;DHT22;21916;52.428;13.302;2022-12-18T09:20:47;-4.80;99.90
35796;DHT22;21916;52.428;13.302;2022-12-18T09:23:14;-4.80;99.90
35796;DHT22;21916;52.428;13.302;2022-12-18T09:25:41;-4.70;99.90
35796;DHT22;21916;52.428;13.302;2022-12-18T09:28:12;-4.60;99.90
35796;DHT22;21916;52.428;13.302;2022-12-18T09:30:40;-4.40;99.90
35796;DHT22;21916;52.428;13.302;2022-12-18T09:33:07;-4.30;99.90
35796;DHT22;21916;52.428;13.302;2022-12-18T09:35:40;-4.20;99.90
35796;DHT22;21916;52.428;13.302;2022-12-18T09:38:06;-4.10;99.90
35796;DHT22;21916;52.428;13.302;2022-12-18T09:41:05;-4.20;99.90
35796;DHT22;21916;52.428;13.302;2022-12-18T09:43:47;-4.10;99.90
35796;DHT22;21916;52.428;13.302;2022-12-18T09:46:24;-4.20;99.90
35796;DHT22;21916;52.428;13.302;2022-12-18T09:48:52;-4.20;99.90
35796;DHT22;21916;52.428;13.302;2022-12-18T09:51:28;-4.10;99.90
35796;DHT22;21916;52.428;13.302;2022-12-18T09:54:03;-4.00;99.90
35796;DHT22;21916;52.428;13.302;2022-12-18T09:56:35;-3.90;99.90
35796;DHT22;21916;52.428;13.302;2022-12-18T09:59:03;-3.80;99.90
35796;DHT22;21916;52.428;13.302;2022-12-18T10:01:32;-3.90;99.90
35796;DHT22;21916;52.428;13.302;2022-12-18T10:03:59;-4.00;99.90
35796;DHT22;21916;52.428;13.302;2022-12-18T10:06:52;-4.20;99.90
35796;DHT22;21916;52.428;13.302;2022-12-18T10:12:08;-4.10;99.90
35796;DHT22;21916;52.428;13.302;2022-12-18T10:17:38;-4.10;99.90
35796;DHT22;21916;52.428;13.302;2022-12-18T10:27:38;-4.20;99.90
35796;DHT22;21916;52.428;13.302;2022-12-18T10:30:17;-4.10;99.90
35796;DHT22;21916;52.428;13.302;2022-12-18T10:32:43;-4.10;99.90
35796;DHT22;21916;52.428;13.302;2022-12-18T10:35:22;-4.10;99.90
35796;DHT22;21916;52.428;13.302;2022-12-18T10:38:07;-4.00;99.90
35796;DHT22;21916;52.428;13.302;2022-12-18T10:41:08;-4.10;99.90
35796;DHT22;21916;52.428;13.302;2022-12-18T10:44:29;-4.10;99.90
35796;DHT22;21916;52.428;13.302;2022-12-18T10:47:04;-4.00;99.90
35796;DHT22;21916;52.428;13.302;2022-12-18T10:49:32;-4.00;99.90
35796;DHT22;21916;52.428;13.302;2022-12-18T10:52:14;-4.00;99.90
35796;DHT22;21916;52.428;13.302;2022-12-18T10:54:54;-4.00;99.90
35796;DHT22;21916;52.428;13.302;2022-12-18T10:57:36;-3.90;99.90
35796;DHT22;21916;52.428;13.302;2022-12-18T11:00:23;-3.80;99.90
35796;DHT22;21916;52.428;13.302;2022-12-18T11:02:50;-3.80;99.90
35796;DHT22;21916;52.428;13.302;2022-12-18T11:05:33;-3.70;99.90
35796;DHT22;21916;52.428;13.302;2022-12-18T11:08:00;-3.60;99.90
35796;DHT22;21916;52.428;13.302;2022-12-18T11:10:35;-3.60;99.90
35796;DHT22;21916;52.428;13.302;2022-12-18T11:13:17;-3.50;99.90
35796;DHT22;21916;52.428;13.302;2022-12-18T11:15:44;-3.40;99.90
35796;DHT22;21916;52.428;13.302;2022-12-18T11:18:22;-3.40;99.90
35796;DHT22;21916;52.428;13.302;2022-12-18T11:23:23;-3.40;99.90
35796;DHT22;21916;52.428;13.302;2022-12-18T11:26:01;-3.40;99.90
35796;DHT22;21916;52.428;13.302;2022-12-18T11:31:17;-3.30;99.90
35796;DHT22;21916;52.428;13.302;2022-12-18T11:36:29;-3.10;99.90
35796;DHT22;21916;52.428;13.302;2022-12-18T11:39:00;-3.00;99.90
35796;DHT22;21916;52.428;13.302;2022-12-18T11:41:37;-3.00;99.90
35796;DHT22;21916;52.428;13.302;2022-12-18T11:44:31;-3.00;99.90
35796;DHT22;21916;52.428;13.302;2022-12-18T11:47:49;-3.00;99.90
35796;DHT22;21916;52.428;13.302;2022-12-18T11:49:49;-2.90;99.90
35796;DHT22;21916;52.428;13.302;2022-12-18T11:52:22;-3.00;99.90
35796;DHT22;21916;52.428;13.302;2022-12-18T11:54:55;-3.00;99.90
35796;DHT22;21916;52.428;13.302;2022-12-18T11:57:46;-3.10;99.90
35796;DHT22;21916;52.428;13.302;2022-12-18T12:00:16;-3.00;99.90
35796;DHT22;21916;52.428;13.302;2022-12-18T12:06:06;-3.00;99.90
35796;DHT22;21916;52.428;13.302;2022-12-18T12:16:21;-3.10;99.90
35796;DHT22;21916;52.428;13.302;2022-12-18T12:19:12;-3.10;99.90
35796;DHT22;21916;52.428;13.302;2022-12-18T12:30:08;-3.00;99.90
35796;DHT22;21916;52.428;13.302;2022-12-18T12:32:49;-2.90;99.90
35796;DHT22;21916;52.428;13.302;2022-12-18T12:35:42;-2.80;99.90
35796;DHT22;21916;52.428;13.302;2022-12-18T12:40:56;-2.90;99.90
35796;DHT22;21916;52.428;13.302;2022-12-18T12:43:43;-2.90;99.90
35796;DHT22;21916;52.428;13.302;2022-12-18T12:46:12;-2.90;99.90
35796;DHT22;21916;52.428;13.302;2022-12-18T12:49:01;-2.90;99.90
35796;DHT22;21916;52.428;13.302;2022-12-18T12:51:32;-2.80;99.90
35796;DHT22;21916;52.428;13.302;2022-12-18T12:54:01;-2.70;99.90
35796;DHT22;21916;52.428;13.302;2022-12-18T12:56:42;-2.60;99.90
35796;DHT22;21916;52.428;13.302;2022-12-18T13:02:09;-2.50;99.90
35796;DHT22;21916;52.428;13.302;2022-12-18T13:05:04;-2.50;99.90
35796;DHT22;21916;52.428;13.302;2022-12-18T13:07:47;-2.40;99.90
35796;DHT22;21916;52.428;13.302;2022-12-18T13:20:41;-2.80;99.90
35796;DHT22;21916;52.428;13.302;2022-12-18T13:30:56;-2.70;99.90
35796;DHT22;21916;52.428;13.302;2022-12-18T13:41:23;-2.90;99.90
35796;DHT22;21916;52.428;13.302;2022-12-18T13:43:53;-2.90;99.90
35796;DHT22;21916;52.428;13.302;2022-12-18T13:46:23;-3.00;99.90
35796;DHT22;21916;52.428;13.302;2022-12-18T13:51:44;-3.10;99.90
35796;DHT22;21916;52.428;13.302;2022-12-18T13:54:36;-3.10;99.90
35796;DHT22;21916;52.428;13.302;2022-12-18T13:57:05;-3.10;99.90
35796;DHT22;21916;52.428;13.302;2022-12-18T13:59:37;-2.90;99.90
35796;DHT22;21916;52.428;13.302;2022-12-18T14:02:14;-3.00;99.90
35796;DHT22;21916;52.428;13.302;2022-12-18T14:04:40;-3.10;99.90
35796;DHT22;21916;52.428;13.302;2022-12-18T14:07:10;-3.10;99.90
35796;DHT22;21916;52.428;13.302;2022-12-18T14:12:36;-3.10;99.90
35796;DHT22;21916;52.428;13.302;2022-12-18T14:20:35;-3.30;99.90
35796;DHT22;21916;52.428;13.302;2022-12-18T14:23:01;-3.40;99.90
35796;DHT22;21916;52.428;13.302;2022-12-18T14:25:28;-3.30;99.90
35796;DHT22;21916;52.428;13.302;2022-12-18T14:30:41;-3.20;99.90
35796;DHT22;21916;52.428;13.302;2022-12-18T14:33:19;-3.30;99.90
35796;DHT22;21916;52.428;13.302;2022-12-18T14:36:14;-3.30;99.90
35796;DHT22;21916;52.428;13.302;2022-12-18T14:38:41;-3.30;99.90
35796;DHT22;21916;52.428;13.302;2022-12-18T14:41:12;-3.40;99.90
35796;DHT22;21916;52.428;13.302;2022-12-18T14:43:40;-3.30;99.90
35796;DHT22;21916;52.428;13.302;2022-12-18T14:48:52;-3.50;99.90
35796;DHT22;21916;52.428;13.302;2022-12-18T14:51:21;-3.40;99.90
35796;DHT22;21916;52.428;13.302;2022-12-18T14:54:01;-3.40;99.90
35796;DHT22;21916;52.428;13.302;2022-12-18T14:56:36;-3.40;99.90
35796;DHT22;21916;52.428;13.302;2022-12-18T14:59:23;-3.50;99.90
35796;DHT22;21916;52.428;13.302;2022-12-18T15:02:10;-3.40;99.90
35796;DHT22;21916;52.428;13.302;2022-12-18T15:04:40;-3.40;99.90
35796;DHT22;21916;52.428;13.302;2022-12-18T15:09:35;-3.50;99.90
35796;DHT22;21916;52.428;13.302;2022-12-18T15:12:02;-3.40;99.90
35796;DHT22;21916;52.428;13.302;2022-12-18T15:14:39;-3.50;99.90
35796;DHT22;21916;52.428;13.302;2022-12-18T15:17:20;-3.40;99.90
35796;DHT22;21916;52.428;13.302;2022-12-18T15:19:48;-3.30;99.90
35796;DHT22;21916;52.428;13.302;2022-12-18T15:22:22;-3.30;99.90
35796;DHT22;21916;52.428;13.302;2022-12-18T15:24:50;-3.30;99.90
35796;DHT22;21916;52.428;13.302;2022-12-18T15:27:33;-3.40;99.90
35796;DHT22;21916;52.428;13.302;2022-12-18T15:32:28;-3.50;99.90
35796;DHT22;21916;52.428;13.302;2022-12-18T15:35:14;-3.50;99.90
35796;DHT22;21916;52.428;13.302;2022-12-18T15:37:41;-3.60;99.90
35796;DHT22;21916;52.428;13.302;2022-12-18T15:40:15;-3.70;99.90
35796;DHT22;21916;52.428;13.302;2022-12-18T15:42:42;-3.70;99.90
35796;DHT22;21916;52.428;13.302;2022-12-18T15:45:28;-3.70;99.90
35796;DHT22;21916;52.428;13.302;2022-12-18T15:47:55;-3.80;99.90
35796;DHT22;21916;52.428;13.302;2022-12-18T15:50:21;-3.80;99.90
35796;DHT22;21916;52.428;13.302;2022-12-18T15:52:49;-3.80;99.90
35796;DHT22;21916;52.428;13.302;2022-12-18T15:55:22;-3.70;99.90
35796;DHT22;21916;52.428;13.302;2022-12-18T15:58:08;-3.80;99.90
35796;DHT22;21916;52.428;13.302;2022-12-18T16:00:35;-3.80;99.90
35796;DHT22;21916;52.428;13.302;2022-12-18T16:03:03;-3.80;99.90
35796;DHT22;21916;52.428;13.302;2022-12-18T16:05:29;-3.80;99.90
35796;DHT22;21916;52.428;13.302;2022-12-18T16:07:55;-3.70;99.90
35796;DHT22;21916;52.428;13.302;2022-12-18T16:10:21;-3.70;99.90
35796;DHT22;21916;52.428;13.302;2022-12-18T16:12:47;-3.70;99.90
35796;DHT22;21916;52.428;13.302;2022-12-18T16:15:14;-3.70;99.90
35796;DHT22;21916;52.428;13.302;2022-12-18T16:17:42;-3.60;99.90
35796;DHT22;21916;52.428;13.302;2022-12-18T16:20:16;-3.60;99.90
35796;DHT22;21916;52.428;13.302;2022-12-18T16:22:44;-3.60;99.90
35796;DHT22;21916;52.428;13.302;2022-12-18T16:25:19;-3.60;99.90
35796;DHT22;21916;52.428;13.302;2022-12-18T16:27:46;-3.60;99.90
35796;DHT22;21916;52.428;13.302;2022-12-18T16:30:14;-3.70;99.90
35796;DHT22;21916;52.428;13.302;2022-12-18T16:32:40;-3.70;99.90
35796;DHT22;21916;52.428;13.302;2022-12-18T16:35:11;-3.70;99.90
35796;DHT22;21916;52.428;13.302;2022-12-18T16:37:38;-3.70;99.90
35796;DHT22;21916;52.428;13.302;2022-12-18T16:40:09;-3.60;99.90
35796;DHT22;21916;52.428;13.302;2022-12-18T16:42:36;-3.60;99.90
35796;DHT22;21916;52.428;13.302;2022-12-18T16:45:03;-3.60;99.90
35796;DHT22;21916;52.428;13.302;2022-12-18T16:47:30;-3.60;99.90
35796;DHT22;21916;52.428;13.302;2022-12-18T16:49:57;-3.70;99.90
35796;DHT22;21916;52.428;13.302;2022-12-18T16:52:24;-3.70;99.90
35796;DHT22;21916;52.428;13.302;2022-12-18T16:54:50;-3.80;99.90
35796;DHT22;21916;52.428;13.302;2022-12-18T16:57:17;-3.80;99.90
35796;DHT22;21916;52.428;13.302;2022-12-18T16:59:44;-3.70;99.90
35796;DHT22;21916;52.428;13.302;2022-12-18T17:02:15;-3.80;99.90
35796;DHT22;21916;52.428;13.302;2022-12-18T17:04:42;-3.80;99.90
35796;DHT22;21916;52.428;13.302;2022-12-18T17:07:09;-3.90;99.90
35796;DHT22;21916;52.428;13.302;2022-12-18T17:09:35;-3.90;99.90
35796;DHT22;21916;52.428;13.302;2022-12-18T17:12:01;-3.90;99.90
35796;DHT22;21916;52.428;13.302;2022-12-18T17:14:27;-3.90;99.90
35796;DHT22;21916;52.428;13.302;2022-12-18T17:16:53;-3.90;99.90
35796;DHT22;21916;52.428;13.302;2022-12-18T17:19:20;-3.90;99.90
35796;DHT22;21916;52.428;13.302;2022-12-18T17:21:49;-3.90;99.90
35796;DHT22;21916;52.428;13.302;2022-12-18T17:24:16;-4.00;99.90
35796;DHT22;21916;52.428;13.302;2022-12-18T17:26:42;-4.00;99.90
35796;DHT22;21916;52.428;13.302;2022-12-18T17:29:12;-4.00;99.90
35796;DHT22;21916;52.428;13.302;2022-12-18T17:31:38;-4.00;99.90
35796;DHT22;21916;52.428;13.302;2022-12-18T17:34:04;-4.00;99.90
35796;DHT22;21916;52.428;13.302;2022-12-18T17:36:31;-4.10;99.90